RJTR(METAR)
02/28 04:58
METAR RJTR 271958Z AUTO 36006KT 10SM OVC032 03/M03 A3029 RMK AO2
SLP262 T00321030 $=
戻る
トップページへ戻る
IMOC Co,.Ltd.